createdAt,value
2023-03-26T00:03:40.663Z,9.60
2023-03-26T00:10:42.460Z,9.60
2023-03-26T00:17:46.256Z,9.60
2023-03-26T00:24:49.197Z,9.60
2023-03-26T00:31:49.655Z,9.60
2023-03-26T00:38:52.860Z,9.50
2023-03-26T00:45:54.994Z,9.50
2023-03-26T00:52:55.774Z,9.50
2023-03-26T00:59:56.866Z,9.50
2023-03-26T01:07:00.949Z,9.50
2023-03-26T01:14:08.452Z,9.50
2023-03-26T01:21:09.607Z,9.60
2023-03-26T01:28:12.416Z,9.60
2023-03-26T01:35:38.302Z,9.50
2023-03-26T01:43:08.413Z,9.50
2023-03-26T01:50:09.411Z,9.50
2023-03-26T01:57:13.148Z,9.40
2023-03-26T02:04:32.772Z,9.20
2023-03-26T02:11:35.904Z,9.10
2023-03-26T02:18:38.879Z,9.00
2023-03-26T02:25:39.793Z,8.90
2023-03-26T02:32:40.509Z,8.70
2023-03-26T02:39:41.064Z,8.60
2023-03-26T02:46:48.133Z,8.60
2023-03-26T02:54:16.122Z,8.50
2023-03-26T03:01:45.657Z,8.50
2023-03-26T03:08:49.846Z,8.40
2023-03-26T03:15:50.064Z,8.40
2023-03-26T03:22:50.668Z,8.40
2023-03-26T03:29:53.496Z,8.40
2023-03-26T03:37:13.528Z,8.50
2023-03-26T03:44:20.770Z,8.60
2023-03-26T03:51:21.888Z,8.60
2023-03-26T03:58:28.098Z,8.70
2023-03-26T04:05:33.721Z,8.80
2023-03-26T04:12:34.444Z,8.80
2023-03-26T04:19:37.302Z,8.80
2023-03-26T04:26:41.096Z,8.90
2023-03-26T04:33:48.129Z,8.90
2023-03-26T04:40:50.928Z,8.80
2023-03-26T04:48:14.324Z,8.70
2023-03-26T04:55:25.426Z,8.60
2023-03-26T05:02:39.212Z,8.50
2023-03-26T05:09:39.863Z,8.50
2023-03-26T05:16:50.249Z,8.40
2023-03-26T05:23:51.058Z,8.40
2023-03-26T05:30:53.172Z,8.30
2023-03-26T05:37:54.471Z,8.30
2023-03-26T05:44:57.231Z,8.30
2023-03-26T05:52:01.863Z,8.30
2023-03-26T05:59:14.622Z,8.30
2023-03-26T06:06:33.658Z,8.30
2023-03-26T06:13:34.578Z,8.30
2023-03-26T06:20:35.536Z,8.30
2023-03-26T06:27:42.404Z,8.20
2023-03-26T06:35:12.004Z,8.20
2023-03-26T06:42:12.763Z,8.20
2023-03-26T06:49:16.326Z,8.20
2023-03-26T06:56:35.521Z,8.20
2023-03-26T07:04:11.917Z,8.30
2023-03-26T07:11:31.285Z,8.20
2023-03-26T07:19:06.917Z,8.20
2023-03-26T07:26:26.426Z,8.20
2023-03-26T07:33:48.221Z,8.10
2023-03-26T07:41:39.572Z,8.20
2023-03-26T07:49:13.305Z,8.20
2023-03-26T07:56:37.217Z,8.20
2023-03-26T08:04:29.682Z,8.20
2023-03-26T08:11:51.270Z,8.20
2023-03-26T08:19:29.348Z,8.10
2023-03-26T08:26:39.765Z,8.20
2023-03-26T08:33:40.848Z,8.20
2023-03-26T08:48:21.846Z,8.20
2023-03-26T08:55:52.456Z,8.20
2023-03-26T09:03:21.082Z,8.20
2023-03-26T09:11:09.269Z,8.20
2023-03-26T09:18:38.805Z,8.20
2023-03-26T09:26:03.925Z,8.10
2023-03-26T09:33:12.782Z,8.10
2023-03-26T09:40:18.530Z,8.00
2023-03-26T09:47:37.397Z,8.00
2023-03-26T09:54:49.735Z,8.00
2023-03-26T10:01:52.675Z,8.00
2023-03-26T10:09:10.261Z,8.00
2023-03-26T10:16:27.321Z,8.00
2023-03-26T10:23:56.779Z,8.10
2023-03-26T10:31:34.123Z,8.10
2023-03-26T10:38:49.584Z,8.10
2023-03-26T10:46:27.560Z,8.20
2023-03-26T10:53:43.155Z,8.30
2023-03-26T11:00:55.964Z,8.30
2023-03-26T11:08:07.269Z,8.30
2023-03-26T11:15:14.595Z,8.30
2023-03-26T11:22:32.283Z,8.40
2023-03-26T11:29:44.704Z,8.50
2023-03-26T11:36:54.249Z,8.70
2023-03-26T11:43:59.806Z,8.90
2023-03-26T11:51:18.346Z,8.90
2023-03-26T11:58:42.527Z,9.00
2023-03-26T12:05:51.598Z,9.10
2023-03-26T12:12:56.207Z,9.30
2023-03-26T12:19:56.772Z,9.50
2023-03-26T12:27:20.401Z,9.70
2023-03-26T12:34:23.006Z,10.00
2023-03-26T12:44:43.392Z,10.30
2023-03-26T12:48:59.755Z,10.70
2023-03-26T12:56:17.401Z,10.90
2023-03-26T13:03:38.402Z,10.80
2023-03-26T13:11:10.876Z,11.00
2023-03-26T13:18:23.307Z,10.90
2023-03-26T13:25:43.320Z,10.80
2023-03-26T13:33:00.987Z,10.90
2023-03-26T13:40:25.307Z,10.90
2023-03-26T13:47:30.199Z,11.10
2023-03-26T13:54:39.992Z,11.10
2023-03-26T14:01:48.709Z,11.10
2023-03-26T14:09:06.470Z,11.00
2023-03-26T14:16:23.716Z,10.90
2023-03-26T14:24:02.711Z,10.90
2023-03-26T14:31:12.273Z,10.80
2023-03-26T14:38:50.170Z,10.70
2023-03-26T14:46:18.567Z,10.70
2023-03-26T14:53:33.405Z,10.50
2023-03-26T15:01:07.597Z,10.50
2023-03-26T15:08:33.895Z,10.30
2023-03-26T15:16:01.804Z,10.20
2023-03-26T15:23:35.345Z,10.30
2023-03-26T15:31:10.651Z,10.20
2023-03-26T15:38:28.673Z,10.00
2023-03-26T15:45:38.142Z,9.90
2023-03-26T15:52:51.838Z,9.80
2023-03-26T16:00:15.065Z,9.70
2023-03-26T16:07:41.357Z,9.60
2023-03-26T16:14:47.592Z,9.50
2023-03-26T16:22:02.305Z,9.40
2023-03-26T16:29:14.759Z,9.20
2023-03-26T16:36:18.501Z,9.10
2023-03-26T16:43:36.910Z,9.10
2023-03-26T16:50:56.161Z,9.00
2023-03-26T16:58:21.718Z,8.90
2023-03-26T17:05:25.288Z,8.90
2023-03-26T17:12:53.221Z,8.80
2023-03-26T17:20:38.276Z,8.70
2023-03-26T17:27:53.929Z,8.60
2023-03-26T17:35:01.877Z,8.50
2023-03-26T17:42:18.978Z,8.40
2023-03-26T17:49:26.949Z,8.30
2023-03-26T17:56:31.948Z,8.30
2023-03-26T18:03:44.774Z,8.20
2023-03-26T18:11:22.118Z,8.20
2023-03-26T18:18:34.444Z,8.10
2023-03-26T18:25:35.655Z,7.90
2023-03-26T18:32:50.852Z,7.90
2023-03-26T18:40:14.438Z,7.90
2023-03-26T18:47:15.084Z,7.80
2023-03-26T18:54:20.647Z,7.80
2023-03-26T19:01:25.855Z,7.70
2023-03-26T19:08:27.294Z,7.70
2023-03-26T19:15:31.680Z,7.70
2023-03-26T19:22:31.892Z,7.60
2023-03-26T19:29:34.640Z,7.60
2023-03-26T19:36:36.923Z,7.50
2023-03-26T19:43:37.334Z,7.50
2023-03-26T19:50:42.334Z,7.40
2023-03-26T19:57:43.026Z,7.40
2023-03-26T20:04:43.252Z,7.40
2023-03-26T20:11:43.708Z,7.30
2023-03-26T20:18:44.164Z,7.30
2023-03-26T20:25:53.682Z,7.20
2023-03-26T20:33:13.023Z,7.10
2023-03-26T20:40:15.650Z,7.10
2023-03-26T20:47:16.327Z,7.00
2023-03-26T20:54:20.031Z,6.90
2023-03-26T21:01:20.642Z,6.80
2023-03-26T21:08:22.189Z,6.80
2023-03-26T21:15:23.934Z,6.70
2023-03-26T21:22:32.407Z,6.60
2023-03-26T21:29:33.078Z,6.50
2023-03-26T21:36:34.970Z,6.50
2023-03-26T21:43:35.217Z,6.40
2023-03-26T21:50:35.810Z,6.30
2023-03-26T21:57:53.267Z,6.20
2023-03-26T22:05:03.688Z,6.20
2023-03-26T22:12:05.259Z,6.10
2023-03-26T22:19:08.631Z,6.00
2023-03-26T22:26:09.910Z,5.90
2023-03-26T22:33:11.887Z,5.80
2023-03-26T22:40:16.039Z,5.60
2023-03-26T22:47:16.948Z,5.40
2023-03-26T22:54:17.161Z,5.20
2023-03-26T23:01:21.374Z,5.00
2023-03-26T23:08:23.259Z,4.80
2023-03-26T23:15:25.759Z,4.60
2023-03-26T23:22:26.295Z,4.50
2023-03-26T23:29:26.675Z,4.40
2023-03-26T23:36:27.190Z,4.20
2023-03-26T23:43:28.506Z,4.10
2023-03-26T23:50:29.416Z,3.90
2023-03-26T23:57:30.455Z,3.80
